ESSP/NRK METAR and TAF weather

Enter ICAO airport designator
Station Type Date Time Source
ESSP METAR 2018/12/12 22:50 UTC NOAA

ESSP 122250Z 05007KT 9999 BKN009 OVC045 01/M00 Q1033


Station Type Date Time Source
ESSP Decoded METAR 2018/12/12 22:50 UTC NOAA

Norrkoping, Sweden (ESSP) 58-35N 016-09E 0M
Dec 12, 2018 - 05:50 PM EST / 2018.12.12 2250 UTC
Wind: from the NE (050 degrees) at 8 MPH (7 KT):0
Visibility: greater than 7 mile(s):0
Sky conditions: overcast
Temperature: 33 F (1 C)
Windchill: 26 F (-3 C):1
Dew Point: 32 F (0 C)
Relative Humidity: 93%
Pressure (altimeter): 30.50 in. Hg (1033 hPa)
ob: ESSP 122250Z 05007KT 9999 BKN009 OVC045 01/M00 Q1033
cycle: 23

Station Type Date Time Source
ESSP TAF 2018/01/01 02:31 UTC NOAA

TAF ESSP 010130Z 0102/0206 16002KT 9999 BKN004 PROB40 0102/0106 4000 BR SCT004


Example: see airport list